createdAt,value
2019-02-21T00:00:43.729Z,42.57
2019-02-21T00:03:13.871Z,31.30
2019-02-21T00:05:44.157Z,38.47
2019-02-21T00:08:14.379Z,44.53
2019-02-21T00:10:45.676Z,35.00
2019-02-21T00:13:15.946Z,36.37
2019-02-21T00:15:46.105Z,38.33
2019-02-21T00:18:16.300Z,34.40
2019-02-21T00:20:46.519Z,34.80
2019-02-21T00:23:16.668Z,39.67
2019-02-21T00:25:46.834Z,38.20
2019-02-21T00:28:17.012Z,34.87
2019-02-21T00:30:47.228Z,40.87
2019-02-21T00:33:17.388Z,37.20
2019-02-21T00:35:47.555Z,37.40
2019-02-21T00:38:17.776Z,39.20
2019-02-21T00:40:47.938Z,43.83
2019-02-21T00:43:18.117Z,46.40
2019-02-21T00:45:48.255Z,46.00
2019-02-21T00:48:18.424Z,41.93
2019-02-21T00:50:48.568Z,36.43
2019-02-21T00:53:18.761Z,43.53
2019-02-21T00:55:48.983Z,43.67
2019-02-21T00:58:19.287Z,43.07
2019-02-21T01:00:49.443Z,31.67
2019-02-21T01:03:19.579Z,38.97
2019-02-21T01:05:49.736Z,40.53
2019-02-21T01:08:19.906Z,44.17
2019-02-21T01:10:50.053Z,37.80
2019-02-21T01:13:20.270Z,35.00
2019-02-21T01:15:51.424Z,37.60
2019-02-21T01:18:21.596Z,40.33
2019-02-21T01:20:51.751Z,39.87
2019-02-21T01:23:21.923Z,37.23
2019-02-21T01:25:52.207Z,39.07
2019-02-21T01:28:22.391Z,36.77
2019-02-21T01:30:57.049Z,38.10
2019-02-21T01:33:24.499Z,33.90
2019-02-21T01:35:54.650Z,43.57
2019-02-21T01:38:24.827Z,41.10
2019-02-21T01:40:55.002Z,33.37
2019-02-21T01:43:25.200Z,40.30
2019-02-21T01:45:55.355Z,39.43
2019-02-21T01:48:25.518Z,39.13
2019-02-21T01:50:55.680Z,37.57
2019-02-21T01:53:25.854Z,40.23
2019-02-21T01:55:56.060Z,36.37
2019-02-21T01:58:26.211Z,39.00
2019-02-21T02:00:56.380Z,35.93
2019-02-21T02:03:26.523Z,38.00
2019-02-21T02:05:56.695Z,40.83
2019-02-21T02:08:26.846Z,36.47
2019-02-21T02:10:57.004Z,36.00
2019-02-21T02:13:27.137Z,42.13
2019-02-21T02:15:57.312Z,40.80
2019-02-21T02:18:27.535Z,36.53
2019-02-21T02:20:57.712Z,40.20
2019-02-21T02:23:27.884Z,42.50
2019-02-21T02:25:59.027Z,35.67
2019-02-21T02:28:29.201Z,38.80
2019-02-21T02:30:59.593Z,41.27
2019-02-21T02:33:29.740Z,40.93
2019-02-21T02:35:59.895Z,42.30
2019-02-21T02:38:31.032Z,42.70
2019-02-21T02:41:01.225Z,37.90
2019-02-21T02:43:31.402Z,39.30
2019-02-21T02:46:01.611Z,38.13
2019-02-21T02:48:31.788Z,40.67
2019-02-21T02:51:01.930Z,46.10
2019-02-21T02:53:32.106Z,40.27
2019-02-21T02:56:02.230Z,37.57
2019-02-21T02:58:32.403Z,35.70
2019-02-21T03:01:03.523Z,29.93
2019-02-21T03:03:34.663Z,38.60
2019-02-21T03:06:04.820Z,40.77
2019-02-21T03:08:34.998Z,36.00
2019-02-21T03:11:06.140Z,35.97
2019-02-21T03:13:36.275Z,36.20
2019-02-21T03:16:06.439Z,34.13
2019-02-21T03:18:36.592Z,39.07
2019-02-21T03:21:07.615Z,39.70
2019-02-21T03:23:37.774Z,34.73
2019-02-21T03:26:07.977Z,37.87
2019-02-21T03:28:39.209Z,37.33
2019-02-21T03:31:09.405Z,42.83
2019-02-21T03:33:39.629Z,37.17
2019-02-21T03:36:09.773Z,40.20
2019-02-21T03:38:40.021Z,35.67
2019-02-21T03:41:10.156Z,35.80
2019-02-21T03:43:40.314Z,34.23
2019-02-21T03:46:10.475Z,32.50
2019-02-21T03:48:40.637Z,29.77
2019-02-21T03:51:10.776Z,33.00
2019-02-21T03:53:40.953Z,31.00
2019-02-21T03:56:11.109Z,34.67
2019-02-21T03:58:41.363Z,32.90
2019-02-21T04:01:11.722Z,31.80
2019-02-21T04:03:41.895Z,36.27
2019-02-21T04:06:12.143Z,31.73
2019-02-21T04:08:42.362Z,33.30
2019-02-21T04:11:12.539Z,33.60
2019-02-21T04:13:42.697Z,36.27
2019-02-21T04:16:12.866Z,37.43
2019-02-21T04:18:43.037Z,36.87
2019-02-21T04:21:13.177Z,37.83
2019-02-21T04:23:43.365Z,38.30
2019-02-21T04:26:13.513Z,39.23
2019-02-21T04:28:45.712Z,42.33
2019-02-21T04:31:15.552Z,42.00
2019-02-21T04:33:45.728Z,42.43
2019-02-21T04:36:15.888Z,41.20
2019-02-21T04:38:46.058Z,39.97
2019-02-21T04:41:16.217Z,41.97
2019-02-21T04:43:46.377Z,43.03
2019-02-21T04:46:16.556Z,41.60
2019-02-21T04:48:46.708Z,38.43
2019-02-21T04:51:16.855Z,46.60
2019-02-21T04:53:47.056Z,49.77
2019-02-21T04:56:17.200Z,41.77
2019-02-21T04:58:47.411Z,50.80
2019-02-21T05:01:17.547Z,46.37
2019-02-21T05:03:47.724Z,48.47
2019-02-21T05:06:17.903Z,52.93
2019-02-21T05:08:48.184Z,56.93
2019-02-21T05:11:19.328Z,61.20
2019-02-21T05:13:49.473Z,52.00
2019-02-21T05:16:19.743Z,55.03
2019-02-21T05:18:49.888Z,57.93
2019-02-21T05:21:20.043Z,57.47
2019-02-21T05:23:50.196Z,53.63
2019-02-21T05:26:26.510Z,64.03
2019-02-21T05:28:56.661Z,52.87
2019-02-21T05:31:37.879Z,54.60
2019-02-21T05:34:14.844Z,48.53
2019-02-21T05:37:00.127Z,48.03
2019-02-21T05:39:47.981Z,52.07
2019-02-21T05:42:29.971Z,50.17
2019-02-21T05:45:13.934Z,52.03
2019-02-21T05:48:01.200Z,56.60
2019-02-21T05:51:05.661Z,54.10
2019-02-21T05:53:48.034Z,44.20
2019-02-21T05:56:43.852Z,47.17
2019-02-21T05:59:21.203Z,47.27
2019-02-21T06:02:04.600Z,53.10
2019-02-21T06:05:08.668Z,56.03
2019-02-21T06:07:56.395Z,56.37
2019-02-21T06:10:45.182Z,56.63
2019-02-21T06:13:28.942Z,57.60
2019-02-21T06:16:08.029Z,71.47
2019-02-21T06:19:09.287Z,53.17
2019-02-21T06:21:54.399Z,56.27
2019-02-21T06:24:35.588Z,65.50
2019-02-21T06:27:12.295Z,62.17
2019-02-21T06:30:04.123Z,65.97
2019-02-21T06:32:34.349Z,68.97
2019-02-21T06:35:04.791Z,60.90
2019-02-21T06:37:34.932Z,64.20
2019-02-21T06:40:05.414Z,51.23
2019-02-21T06:42:35.600Z,58.50
2019-02-21T06:45:06.231Z,59.03
2019-02-21T06:47:36.428Z,99.50
2019-02-21T06:50:06.619Z,81.97
2019-02-21T06:52:36.907Z,83.57
2019-02-21T06:55:07.040Z,90.53
2019-02-21T06:57:37.248Z,67.63
2019-02-21T07:00:07.432Z,65.00
2019-02-21T07:02:37.736Z,70.43
2019-02-21T07:05:07.896Z,60.37
2019-02-21T07:07:38.080Z,58.87
2019-02-21T07:10:11.129Z,67.07
2019-02-21T07:12:41.304Z,64.87
2019-02-21T07:15:11.640Z,46.23
2019-02-21T07:17:48.843Z,55.10
2019-02-21T07:20:13.713Z,56.53
2019-02-21T07:22:43.967Z,61.10
2019-02-21T07:25:32.559Z,65.10
2019-02-21T07:28:11.337Z,59.53
2019-02-21T07:30:34.629Z,53.27
2019-02-21T07:33:04.795Z,51.93
2019-02-21T07:35:34.956Z,61.40
2019-02-21T07:38:05.084Z,55.60
2019-02-21T07:40:35.238Z,59.77
2019-02-21T07:43:05.406Z,68.20
2019-02-21T07:45:36.459Z,73.73
2019-02-21T07:48:06.801Z,62.83
2019-02-21T07:50:36.949Z,58.60
2019-02-21T07:53:07.122Z,57.63
2019-02-21T07:55:37.281Z,60.80
2019-02-21T07:58:07.452Z,57.03
2019-02-21T08:00:37.619Z,61.00
2019-02-21T08:03:09.198Z,55.03
2019-02-21T08:05:39.539Z,55.33
2019-02-21T08:08:09.697Z,57.43
2019-02-21T08:10:39.882Z,53.97
2019-02-21T08:13:10.018Z,55.20
2019-02-21T08:15:40.173Z,59.27
2019-02-21T08:18:10.318Z,65.63
2019-02-21T08:20:41.137Z,60.77
2019-02-21T08:23:11.536Z,57.53
2019-02-21T08:25:41.863Z,54.13
2019-02-21T08:28:12.023Z,59.37
2019-02-21T08:30:42.220Z,53.60
2019-02-21T08:33:34.131Z,53.13
2019-02-21T08:36:04.285Z,51.80
2019-02-21T08:38:34.490Z,50.80
2019-02-21T08:41:04.628Z,53.93
2019-02-21T08:43:37.221Z,50.27
2019-02-21T08:46:06.660Z,53.73
2019-02-21T08:48:36.834Z,55.80
2019-02-21T08:51:06.996Z,51.83
2019-02-21T08:53:37.215Z,52.97
2019-02-21T08:56:07.363Z,50.10
2019-02-21T08:58:37.551Z,62.03
2019-02-21T09:01:07.809Z,51.10
2019-02-21T09:03:39.038Z,50.30
2019-02-21T09:06:09.183Z,45.57
2019-02-21T09:08:39.372Z,53.70
2019-02-21T09:11:09.545Z,54.00
2019-02-21T09:13:41.609Z,46.03
2019-02-21T09:16:11.792Z,49.23
2019-02-21T09:18:41.968Z,50.47
2019-02-21T09:21:12.156Z,45.77
2019-02-21T09:23:42.355Z,46.33
2019-02-21T09:26:12.533Z,52.03
2019-02-21T09:28:42.784Z,45.57
2019-02-21T09:31:13.029Z,45.97
2019-02-21T09:33:43.905Z,47.20
2019-02-21T09:36:14.146Z,46.47
2019-02-21T09:38:44.357Z,46.73
2019-02-21T09:41:14.627Z,38.33
2019-02-21T09:43:46.218Z,46.63
2019-02-21T09:46:17.347Z,47.90
2019-02-21T09:48:47.535Z,51.63
2019-02-21T09:51:18.401Z,46.00
2019-02-21T09:53:48.668Z,45.43
2019-02-21T09:56:29.520Z,47.10
2019-02-21T09:58:50.707Z,51.53
2019-02-21T10:01:20.874Z,49.73
2019-02-21T10:03:51.071Z,46.33
2019-02-21T10:06:21.304Z,50.93
2019-02-21T10:08:51.447Z,45.30
2019-02-21T10:11:21.660Z,44.97
2019-02-21T10:13:51.819Z,46.27
2019-02-21T10:16:21.975Z,53.70
2019-02-21T10:18:52.187Z,50.93
2019-02-21T10:21:22.387Z,49.57
2019-02-21T10:23:52.550Z,53.83
2019-02-21T10:26:22.714Z,56.37
2019-02-21T10:28:52.979Z,44.77
2019-02-21T10:31:23.124Z,44.80
2019-02-21T10:33:53.307Z,46.13
2019-02-21T10:36:23.476Z,46.50
2019-02-21T10:38:53.632Z,49.57
2019-02-21T10:41:23.805Z,45.33
2019-02-21T10:43:53.984Z,45.10
2019-02-21T10:46:24.159Z,39.93
2019-02-21T10:48:54.377Z,41.17
2019-02-21T10:51:24.572Z,43.10
2019-02-21T10:53:54.740Z,41.10
2019-02-21T10:56:24.928Z,39.17
2019-02-21T10:58:55.122Z,37.20
2019-02-21T11:01:26.256Z,36.47
2019-02-21T11:03:56.431Z,42.13
2019-02-21T11:06:26.659Z,34.10
2019-02-21T11:08:56.859Z,30.33
2019-02-21T11:11:27.070Z,34.33
2019-02-21T11:13:57.266Z,37.90
2019-02-21T11:16:27.485Z,41.50
2019-02-21T11:18:57.682Z,41.33
2019-02-21T11:21:29.587Z,33.70
2019-02-21T11:23:59.766Z,34.20
2019-02-21T11:26:29.931Z,32.53
2019-02-21T11:29:00.079Z,33.43
2019-02-21T11:31:30.219Z,29.77
2019-02-21T11:34:00.391Z,28.27
2019-02-21T11:36:30.548Z,30.93
2019-02-21T11:39:00.755Z,35.83
2019-02-21T11:41:32.553Z,32.70
2019-02-21T11:44:02.706Z,28.23
2019-02-21T11:46:36.445Z,31.90
2019-02-21T11:49:06.617Z,31.63
2019-02-21T11:51:36.809Z,32.20
2019-02-21T11:54:06.994Z,28.93
2019-02-21T11:56:37.179Z,32.60
2019-02-21T11:59:07.340Z,29.10
2019-02-21T12:01:39.595Z,27.50
2019-02-21T12:04:09.408Z,25.03
2019-02-21T12:06:39.623Z,27.80
2019-02-21T12:09:11.337Z,49.47
2019-02-21T12:11:41.726Z,24.17
2019-02-21T12:14:11.884Z,25.90
2019-02-21T12:16:42.060Z,24.67
2019-02-21T12:19:12.229Z,29.00
2019-02-21T12:21:42.371Z,27.13
2019-02-21T12:24:12.539Z,26.23
2019-02-21T12:26:42.709Z,26.63
2019-02-21T12:29:12.923Z,28.17
2019-02-21T12:31:43.079Z,26.43
2019-02-21T12:34:13.236Z,25.80
2019-02-21T12:36:43.465Z,26.63
2019-02-21T12:39:13.641Z,27.07
2019-02-21T12:41:43.811Z,27.53
2019-02-21T12:44:14.065Z,25.93
2019-02-21T12:46:45.678Z,25.50
2019-02-21T12:49:16.136Z,27.70
2019-02-21T12:51:46.390Z,28.07
2019-02-21T12:54:17.545Z,31.47
2019-02-21T12:56:47.717Z,34.87
2019-02-21T12:59:17.928Z,34.50
2019-02-21T13:01:48.144Z,40.90
2019-02-21T13:04:18.388Z,33.20
2019-02-21T13:06:49.557Z,34.33
2019-02-21T13:09:19.735Z,37.87
2019-02-21T13:11:49.893Z,34.57
2019-02-21T13:14:20.125Z,34.50
2019-02-21T13:16:50.313Z,35.03
2019-02-21T13:19:20.481Z,34.27
2019-02-21T13:21:50.677Z,38.03
2019-02-21T13:24:20.887Z,37.33
2019-02-21T13:26:51.071Z,34.90
2019-02-21T13:29:23.992Z,35.90
2019-02-21T13:31:54.170Z,33.97
2019-02-21T13:34:24.325Z,33.20
2019-02-21T13:36:54.482Z,28.40
2019-02-21T13:39:24.659Z,37.40
2019-02-21T13:41:54.866Z,34.90
2019-02-21T13:44:25.016Z,40.10
2019-02-21T13:46:55.184Z,31.80
2019-02-21T13:49:25.326Z,29.90
2019-02-21T13:51:55.537Z,36.13
2019-02-21T13:54:25.692Z,34.83
2019-02-21T13:56:55.867Z,30.50
2019-02-21T13:59:26.087Z,33.03
2019-02-21T14:01:56.252Z,30.70
2019-02-21T14:04:26.477Z,30.93
2019-02-21T14:06:56.668Z,32.20
2019-02-21T14:09:26.825Z,31.77
2019-02-21T14:11:56.998Z,30.33
2019-02-21T14:14:27.144Z,36.07
2019-02-21T14:16:57.323Z,35.17
2019-02-21T14:19:27.502Z,39.20
2019-02-21T14:21:57.692Z,28.70
2019-02-21T14:24:36.299Z,32.37
2019-02-21T14:27:00.673Z,48.10
2019-02-21T14:29:38.774Z,29.73
2019-02-21T14:32:02.704Z,31.47
2019-02-21T14:34:32.892Z,31.53
2019-02-21T14:37:03.072Z,35.10
2019-02-21T14:39:33.231Z,34.00
2019-02-21T14:42:04.420Z,28.83
2019-02-21T14:44:34.755Z,31.27
2019-02-21T14:47:04.916Z,28.77
2019-02-21T14:49:35.140Z,28.97
2019-02-21T14:52:05.355Z,26.87
2019-02-21T14:54:38.068Z,34.40
2019-02-21T14:57:07.531Z,30.00
2019-02-21T14:59:37.770Z,29.27
2019-02-21T15:02:08.011Z,32.93
2019-02-21T15:04:38.414Z,30.27
2019-02-21T15:07:08.747Z,28.30
2019-02-21T15:09:39.001Z,35.77
2019-02-21T15:12:11.715Z,34.20
2019-02-21T15:14:41.046Z,39.93
2019-02-21T15:17:11.225Z,34.50
2019-02-21T15:19:41.462Z,37.60
2019-02-21T15:22:13.682Z,35.17
2019-02-21T15:24:43.462Z,32.90
2019-02-21T15:27:13.650Z,30.10
2019-02-21T15:29:43.805Z,35.43
2019-02-21T15:32:14.429Z,33.33
2019-02-21T15:34:47.116Z,31.07
2019-02-21T15:37:16.596Z,32.53
2019-02-21T15:39:46.843Z,31.13
2019-02-21T15:42:17.073Z,36.37
2019-02-21T15:44:47.274Z,27.20
2019-02-21T15:47:17.438Z,32.80
2019-02-21T15:49:47.678Z,31.53
2019-02-21T15:52:22.349Z,35.60
2019-02-21T15:54:49.710Z,30.37
2019-02-21T15:57:19.880Z,36.97
2019-02-21T15:59:50.085Z,37.97
2019-02-21T16:02:20.284Z,39.50
2019-02-21T16:04:50.589Z,37.83
2019-02-21T16:07:20.748Z,31.50
2019-02-21T16:09:50.992Z,33.27
2019-02-21T16:12:21.427Z,42.93
2019-02-21T16:14:54.433Z,37.20
2019-02-21T16:17:24.583Z,38.13
2019-02-21T16:19:54.817Z,34.37
2019-02-21T16:22:25.004Z,38.30
2019-02-21T16:24:55.212Z,40.53
2019-02-21T16:27:25.554Z,31.93
2019-02-21T16:29:55.837Z,35.23
2019-02-21T16:32:26.064Z,36.97
2019-02-21T16:34:56.291Z,32.17
2019-02-21T16:37:26.511Z,37.03
2019-02-21T16:39:56.724Z,37.70
2019-02-21T16:42:26.857Z,33.30
2019-02-21T16:44:57.060Z,32.47
2019-02-21T16:47:27.265Z,35.87
2019-02-21T16:49:58.476Z,35.10
2019-02-21T16:52:29.741Z,37.93
2019-02-21T16:54:59.904Z,37.80
2019-02-21T16:57:30.145Z,39.37
2019-02-21T17:00:00.492Z,36.40
2019-02-21T17:02:31.783Z,41.67
2019-02-21T17:05:03.113Z,42.80
2019-02-21T17:07:33.419Z,44.10
2019-02-21T17:10:04.180Z,45.53
2019-02-21T17:12:37.060Z,43.70
2019-02-21T17:15:08.073Z,45.33
2019-02-21T17:17:38.244Z,45.40
2019-02-21T17:20:10.246Z,45.40
2019-02-21T17:22:40.405Z,41.43
2019-02-21T17:25:29.699Z,45.77
2019-02-21T17:27:59.865Z,50.80
2019-02-21T17:30:30.035Z,45.70
2019-02-21T17:33:00.391Z,49.73
2019-02-21T17:35:31.871Z,47.33
2019-02-21T17:38:02.034Z,47.87
2019-02-21T17:40:33.284Z,48.47
2019-02-21T17:43:03.488Z,49.20
2019-02-21T17:45:33.684Z,48.50
2019-02-21T17:48:04.130Z,47.43
2019-02-21T17:50:34.335Z,53.50
2019-02-21T17:53:04.604Z,51.70
2019-02-21T17:55:34.816Z,54.50
2019-02-21T17:58:05.036Z,48.63
2019-02-21T18:00:36.834Z,55.83
2019-02-21T18:03:07.037Z,53.57
2019-02-21T18:05:37.223Z,51.53
2019-02-21T18:08:07.536Z,52.27
2019-02-21T18:10:37.743Z,55.67
2019-02-21T18:13:07.977Z,55.67
2019-02-21T18:15:38.168Z,52.63
2019-02-21T18:18:08.367Z,50.13
2019-02-21T18:20:38.576Z,76.77
2019-02-21T18:23:08.796Z,60.37
2019-02-21T18:25:42.392Z,58.50
2019-02-21T18:28:12.657Z,57.10
2019-02-21T18:30:42.899Z,61.27
2019-02-21T18:33:13.097Z,65.57
2019-02-21T18:35:43.315Z,64.90
2019-02-21T18:38:13.530Z,61.60
2019-02-21T18:40:43.718Z,63.30
2019-02-21T18:43:13.919Z,61.80
2019-02-21T18:45:44.114Z,65.07
2019-02-21T18:48:14.439Z,94.10
2019-02-21T18:50:44.612Z,78.30
2019-02-21T18:53:14.877Z,78.73
2019-02-21T18:55:45.083Z,66.53
2019-02-21T18:58:15.464Z,69.63
2019-02-21T19:00:45.659Z,56.93
2019-02-21T19:03:16.119Z,59.53
2019-02-21T19:05:46.323Z,61.00
2019-02-21T19:08:16.610Z,55.37
2019-02-21T19:10:46.783Z,60.17
2019-02-21T19:13:17.177Z,56.30
2019-02-21T19:15:47.396Z,55.60
2019-02-21T19:18:17.598Z,74.80
2019-02-21T19:20:47.940Z,62.37
2019-02-21T19:23:18.212Z,149.53
2019-02-21T19:25:48.411Z,109.90
2019-02-21T19:28:18.634Z,77.03
2019-02-21T19:31:02.220Z,65.27
2019-02-21T19:33:32.479Z,63.67
2019-02-21T19:36:02.661Z,56.13
2019-02-21T19:38:33.155Z,60.07
2019-02-21T19:41:04.378Z,56.77
2019-02-21T19:43:35.261Z,63.17
2019-02-21T19:46:08.698Z,59.80
2019-02-21T19:48:40.036Z,58.07
2019-02-21T19:51:11.856Z,56.93
2019-02-21T19:53:42.492Z,61.87
2019-02-21T19:56:12.843Z,56.20
2019-02-21T19:58:43.188Z,56.30
2019-02-21T20:01:13.528Z,57.97
2019-02-21T20:03:43.907Z,58.97
2019-02-21T20:06:14.199Z,51.00
2019-02-21T20:08:44.603Z,53.10
2019-02-21T20:11:16.008Z,54.37
2019-02-21T20:13:46.426Z,60.10
2019-02-21T20:16:18.157Z,49.63
2019-02-21T20:18:50.601Z,49.20
2019-02-21T20:21:21.669Z,51.83
2019-02-21T20:23:51.894Z,54.50
2019-02-21T20:26:22.725Z,49.33
2019-02-21T20:28:55.072Z,54.90
2019-02-21T20:31:25.153Z,49.93
2019-02-21T20:33:55.450Z,54.37
2019-02-21T20:36:25.825Z,42.40
2019-02-21T20:38:55.996Z,47.80
2019-02-21T20:41:26.411Z,49.00
2019-02-21T20:43:57.741Z,49.60
2019-02-21T20:46:28.205Z,45.47
2019-02-21T20:48:58.408Z,44.57
2019-02-21T20:51:28.656Z,47.77
2019-02-21T20:53:58.908Z,47.40
2019-02-21T20:56:29.165Z,42.70
2019-02-21T20:58:59.354Z,43.70
2019-02-21T21:01:29.542Z,53.07
2019-02-21T21:03:59.868Z,56.10
2019-02-21T21:06:30.128Z,49.70
2019-02-21T21:09:00.789Z,53.60
2019-02-21T21:11:32.556Z,45.50
2019-02-21T21:14:03.195Z,55.83
2019-02-21T21:16:36.737Z,45.80
2019-02-21T21:19:07.106Z,42.13
2019-02-21T21:21:39.416Z,47.00
2019-02-21T21:24:09.627Z,44.97
2019-02-21T21:26:42.145Z,43.97
2019-02-21T21:29:12.397Z,54.70
2019-02-21T21:31:44.991Z,43.17
2019-02-21T21:34:15.431Z,49.83
2019-02-21T21:36:49.254Z,53.43
2019-02-21T21:39:20.041Z,51.80
2019-02-21T21:41:53.114Z,51.50
2019-02-21T21:44:23.536Z,56.80
2019-02-21T21:46:53.782Z,61.83
2019-02-21T21:49:24.136Z,55.00
2019-02-21T21:51:54.780Z,63.60
2019-02-21T21:54:25.721Z,59.80
2019-02-21T21:56:56.096Z,65.13
2019-02-21T21:59:26.277Z,64.97
2019-02-21T22:01:56.531Z,59.10
2019-02-21T22:04:26.946Z,65.97
2019-02-21T22:06:57.616Z,64.53
2019-02-21T22:09:28.016Z,67.10
2019-02-21T22:11:59.570Z,64.20
2019-02-21T22:14:29.771Z,61.47
2019-02-21T22:17:02.735Z,64.37
2019-02-21T22:19:33.685Z,62.73
2019-02-21T22:22:04.249Z,76.83
2019-02-21T22:24:34.896Z,66.37
2019-02-21T22:27:05.099Z,69.93
2019-02-21T22:29:35.498Z,70.50
2019-02-21T22:32:05.876Z,78.87
2019-02-21T22:34:36.143Z,66.93
2019-02-21T22:37:06.633Z,70.77
2019-02-21T22:39:39.813Z,74.43
2019-02-21T22:42:13.170Z,75.87
2019-02-21T22:44:43.430Z,78.67
2019-02-21T22:47:13.634Z,76.87
2019-02-21T22:49:43.828Z,74.27
2019-02-21T22:52:13.963Z,82.47
2019-02-21T22:54:44.137Z,68.80
2019-02-21T22:57:14.280Z,80.07
2019-02-21T22:59:44.458Z,81.03
2019-02-21T23:02:14.981Z,81.63
2019-02-21T23:05:05.067Z,80.87
2019-02-21T23:07:40.415Z,90.70
2019-02-21T23:10:10.578Z,90.53
2019-02-21T23:12:40.753Z,97.60
2019-02-21T23:15:11.419Z,99.37
2019-02-21T23:17:41.655Z,83.37
2019-02-21T23:20:11.878Z,91.87
2019-02-21T23:22:42.054Z,98.37
2019-02-21T23:25:12.244Z,88.63
2019-02-21T23:27:42.401Z,88.27
2019-02-21T23:30:13.638Z,91.50
2019-02-21T23:32:43.797Z,109.17
2019-02-21T23:35:19.730Z,107.83
2019-02-21T23:37:49.936Z,104.60
2019-02-21T23:40:20.096Z,109.87
2019-02-21T23:42:50.320Z,108.80
2019-02-21T23:45:20.484Z,111.63
2019-02-21T23:47:50.627Z,107.27
2019-02-21T23:50:20.768Z,120.20
2019-02-21T23:52:50.926Z,115.50
2019-02-21T23:55:21.139Z,101.77
2019-02-21T23:57:51.894Z,114.77
